Time;durP1;ratioP1;P1;durP2;ratioP2;P2;SDS_P1;SDS_P2;PMS_P1;PMS_P2;Temp;Humidity;BMP_temperature;BMP_pressure;BME280_temperature;BME280_humidity;BME280_pressure;Samples;Min_cycle;Max_cycle;Signal;HPM_P1;HPM_P2
2023/01/12 00:02:10;;;;;;;0.00;0.00;;;;;;;;;;5016572;28;20208;-78
2023/01/12 00:04:39;;;;;;;0.00;0.00;;;;;;;;;;5016293;28;20205;-77
2023/01/12 00:07:07;;;;;;;0.00;0.00;;;;;;;;;;5032157;28;20231;-77
2023/01/12 00:09:36;;;;;;;0.00;0.00;;;;;;;;;;5056233;28;20203;-76
2023/01/12 00:12:05;;;;;;;0.00;0.00;;;;;;;;;;5035116;28;20231;-78
2023/01/12 00:14:34;;;;;;;0.00;0.00;;;;;;;;;;5035602;28;20263;-76
2023/01/12 00:17:05;;;;;;;0.00;0.00;;;;;;;;;;5036172;28;20256;-77
2023/01/12 00:19:35;;;;;;;0.00;0.00;;;;;;;;;;5034433;28;20231;-77
2023/01/12 00:22:08;;;;;;;0.00;0.00;;;;;;;;;;5035595;28;20246;-77
2023/01/12 00:24:37;;;;;;;0.00;0.00;;;;;;;;;;5019813;28;20195;-77
2023/01/12 00:27:06;;;;;;;0.00;0.00;;;;;;;;;;5035591;28;20219;-78
2023/01/12 00:29:35;;;;;;;0.00;0.00;;;;;;;;;;5031260;28;20322;-78
2023/01/12 00:32:05;;;;;;;0.00;0.00;;;;;;;;;;5035512;28;20642;-77
2023/01/12 00:34:34;;;;;;;0.00;0.00;;;;;;;;;;5018115;28;20291;-78
2023/01/12 00:37:04;;;;;;;0.00;0.00;;;;;;;;;;5029273;28;20255;-77
2023/01/12 00:39:32;;;;;;;0.00;0.00;;;;;;;;;;5035080;28;20253;-78
2023/01/12 00:47:34;;;;;;;0.00;0.00;;;;;;;;;;5015918;28;20303;-77
2023/01/12 00:50:03;;;;;;;0.00;0.00;;;;;;;;;;5023387;28;20200;-78
2023/01/12 00:52:31;;;;;;;0.00;0.00;;;;;;;;;;5032555;28;20258;-78
2023/01/12 00:55:00;;;;;;;0.00;0.00;;;;;;;;;;5034972;28;20251;-78
2023/01/12 00:57:28;;;;;;;0.00;0.00;;;;;;;;;;5028338;28;20232;-77
2023/01/12 00:59:58;;;;;;;0.03;0.03;;;;;;;;;;5027305;28;20211;-78
2023/01/12 01:02:27;;;;;;;0.00;0.00;;;;;;;;;;5034865;28;20214;-77
2023/01/12 01:04:57;;;;;;;0.00;0.00;;;;;;;;;;5035102;28;20527;-77
2023/01/12 01:07:26;;;;;;;0.00;0.00;;;;;;;;;;5034770;28;20286;-78
2023/01/12 01:09:54;;;;;;;0.00;0.00;;;;;;;;;;5035205;28;20254;-77
2023/01/12 01:12:22;;;;;;;0.00;0.00;;;;;;;;;;5023492;28;20220;-77
2023/01/12 01:14:52;;;;;;;0.00;0.00;;;;;;;;;;5029696;28;20265;-77
2023/01/12 01:17:20;;;;;;;0.00;0.00;;;;;;;;;;5035201;28;20236;-77
2023/01/12 01:19:49;;;;;;;0.00;0.00;;;;;;;;;;5035957;28;20683;-77
2023/01/12 01:22:18;;;;;;;0.00;0.00;;;;;;;;;;5028664;28;20236;-77
2023/01/12 01:24:48;;;;;;;0.00;0.00;;;;;;;;;;5025993;28;20638;-77
2023/01/12 01:27:16;;;;;;;0.00;0.00;;;;;;;;;;5032967;28;20227;-76
2023/01/12 01:29:45;;;;;;;0.00;0.00;;;;;;;;;;5026162;28;20209;-77
2023/01/12 01:32:13;;;;;;;0.00;0.00;;;;;;;;;;5031296;28;20250;-77
2023/01/12 01:34:42;;;;;;;0.00;0.00;;;;;;;;;;5014999;28;20216;-77
2023/01/12 01:37:11;;;;;;;0.00;0.00;;;;;;;;;;5032061;28;20754;-76
2023/01/12 01:39:41;;;;;;;0.00;0.00;;;;;;;;;;5035020;28;20218;-77
2023/01/12 01:42:26;;;;;;;0.00;0.00;;;;;;;;;;5024730;28;20203;-76
2023/01/12 01:44:56;;;;;;;0.00;0.00;;;;;;;;;;5035223;28;20648;-77
2023/01/12 01:47:30;;;;;;;0.00;0.00;;;;;;;;;;5035002;28;20219;-77
2023/01/12 01:50:00;;;;;;;0.00;0.00;;;;;;;;;;5034599;28;20246;-77
2023/01/12 01:52:30;;;;;;;0.00;0.00;;;;;;;;;;5035817;28;20196;-77
2023/01/12 01:55:02;;;;;;;0.00;0.00;;;;;;;;;;5034946;28;20220;-77
2023/01/12 01:57:32;;;;;;;0.00;0.00;;;;;;;;;;5033525;28;20266;-77
2023/01/12 02:00:02;;;;;;;0.00;0.00;;;;;;;;;;5025216;28;20196;-77
2023/01/12 02:02:30;;;;;;;0.00;0.00;;;;;;;;;;5035384;28;20231;-77
2023/01/12 02:04:59;;;;;;;0.00;0.00;;;;;;;;;;5035255;28;20282;-77
2023/01/12 02:07:27;;;;;;;0.00;0.00;;;;;;;;;;5034860;28;20762;-77
2023/01/12 02:09:55;;;;;;;0.00;0.00;;;;;;;;;;5034803;28;20908;-77
2023/01/12 02:18:04;;;;;;;0.00;0.00;;;;;;;;;;5033952;28;20639;-77
2023/01/12 02:20:47;;;;;;;0.00;0.00;;;;;;;;;;5033689;28;20589;-77
2023/01/12 02:23:30;;;;;;;0.00;0.00;;;;;;;;;;5014668;28;20239;-77
2023/01/12 02:26:19;;;;;;;0.00;0.00;;;;;;;;;;5033624;28;20200;-77
2023/01/12 02:29:11;;;;;;;0.00;0.00;;;;;;;;;;5033722;28;20250;-78
2023/01/12 02:31:51;;;;;;;0.00;0.00;;;;;;;;;;5032855;28;20273;-77
2023/01/12 02:34:28;;;;;;;0.00;0.00;;;;;;;;;;5033656;28;20192;-77
2023/01/12 02:37:01;;;;;;;0.00;0.00;;;;;;;;;;5033819;28;20223;-76
2023/01/12 02:39:32;;;;;;;0.00;0.00;;;;;;;;;;5035086;28;20192;-77
2023/01/12 02:44:54;;;;;;;0.00;0.00;;;;;;;;;;5029095;28;20231;-78
2023/01/12 02:47:27;;;;;;;0.00;0.00;;;;;;;;;;5028217;28;20258;-78
2023/01/12 02:50:00;;;;;;;0.00;0.00;;;;;;;;;;5043373;28;20243;-77
2023/01/12 02:52:31;;;;;;;0.00;0.00;;;;;;;;;;5033397;28;20261;-77
2023/01/12 02:55:00;;;;;;;0.00;0.00;;;;;;;;;;5033411;28;20687;-78
2023/01/12 02:57:30;;;;;;;0.00;0.00;;;;;;;;;;5033461;28;20259;-78
2023/01/12 02:59:59;;;;;;;0.00;0.00;;;;;;;;;;5030201;28;20243;-77
2023/01/12 03:02:29;;;;;;;0.00;0.00;;;;;;;;;;5019682;28;20207;-78
2023/01/12 03:04:58;;;;;;;0.00;0.00;;;;;;;;;;5033609;28;20624;-77
2023/01/12 03:07:32;;;;;;;0.00;0.00;;;;;;;;;;5033489;28;20263;-77
2023/01/12 03:10:05;;;;;;;0.00;0.00;;;;;;;;;;5033086;28;20656;-77
2023/01/12 03:12:35;;;;;;;0.00;0.00;;;;;;;;;;5027266;28;20200;-78
2023/01/12 03:15:04;;;;;;;0.00;0.00;;;;;;;;;;5023042;28;20261;-77
2023/01/12 03:17:37;;;;;;;0.00;0.00;;;;;;;;;;5017139;28;20224;-78
2023/01/12 03:20:07;;;;;;;0.00;0.00;;;;;;;;;;5013356;28;20188;-78
2023/01/12 03:22:37;;;;;;;0.00;0.00;;;;;;;;;;5013723;28;20220;-78
2023/01/12 03:25:09;;;;;;;0.00;0.00;;;;;;;;;;5023802;28;20262;-78
2023/01/12 03:27:39;;;;;;;0.00;0.00;;;;;;;;;;5043117;28;20222;-78
2023/01/12 03:30:08;;;;;;;0.00;0.00;;;;;;;;;;5040324;28;20257;-78
2023/01/12 03:32:38;;;;;;;0.00;0.00;;;;;;;;;;5033236;28;20290;-78
2023/01/12 03:35:08;;;;;;;0.00;0.00;;;;;;;;;;5033769;28;20628;-77
2023/01/12 03:37:38;;;;;;;0.00;0.00;;;;;;;;;;5036684;28;20277;-77
2023/01/12 03:40:09;;;;;;;0.00;0.00;;;;;;;;;;5037072;28;20257;-78
2023/01/12 03:42:39;;;;;;;0.00;0.00;;;;;;;;;;5036636;28;20223;-78
2023/01/12 03:45:11;;;;;;;0.00;0.00;;;;;;;;;;5018279;28;20236;-77
2023/01/12 03:47:41;;;;;;;0.00;0.00;;;;;;;;;;5023529;28;20672;-78
2023/01/12 03:50:12;;;;;;;0.00;0.00;;;;;;;;;;5036479;28;20187;-78
2023/01/12 03:52:43;;;;;;;0.00;0.00;;;;;;;;;;5036656;28;20282;-78
2023/01/12 03:55:14;;;;;;;0.00;0.00;;;;;;;;;;5016464;28;20315;-78
2023/01/12 03:57:44;;;;;;;0.00;0.00;;;;;;;;;;5016597;28;20266;-77
2023/01/12 04:00:14;;;;;;;0.00;0.00;;;;;;;;;;5036216;28;20254;-78
2023/01/12 04:02:45;;;;;;;0.00;0.00;;;;;;;;;;5036518;28;20251;-78
2023/01/12 04:05:14;;;;;;;0.00;0.00;;;;;;;;;;5036152;28;20184;-77
2023/01/12 04:07:42;;;;;;;0.00;0.00;;;;;;;;;;5036482;28;20223;-78
2023/01/12 04:10:11;;;;;;;0.00;0.00;;;;;;;;;;5036131;28;20207;-78
2023/01/12 04:12:38;;;;;;;0.00;0.00;;;;;;;;;;5036322;28;20253;-78
2023/01/12 04:15:07;;;;;;;0.00;0.00;;;;;;;;;;5036276;28;20254;-78
2023/01/12 04:17:36;;;;;;;0.00;0.00;;;;;;;;;;5036022;28;20255;-78
2023/01/12 04:20:08;;;;;;;0.00;0.00;;;;;;;;;;5035833;28;20610;-78
2023/01/12 04:22:44;;;;;;;0.00;0.00;;;;;;;;;;5035810;28;20205;-77
2023/01/12 04:25:14;;;;;;;0.00;0.00;;;;;;;;;;5036020;28;20188;-78
2023/01/12 04:27:43;;;;;;;0.00;0.00;;;;;;;;;;5035481;28;20267;-78
2023/01/12 04:30:12;;;;;;;0.00;0.00;;;;;;;;;;5035764;28;20207;-78
2023/01/12 04:32:41;;;;;;;0.00;0.00;;;;;;;;;;5028848;28;20588;-78
2023/01/12 04:35:12;;;;;;;0.00;0.00;;;;;;;;;;5025817;28;20244;-77
2023/01/12 04:37:40;;;;;;;0.00;0.00;;;;;;;;;;5015466;28;20232;-77
2023/01/12 04:40:11;;;;;;;0.00;0.00;;;;;;;;;;5034907;28;20681;-78
2023/01/12 04:45:25;;;;;;;0.00;0.00;;;;;;;;;;5034498;28;20231;-77
2023/01/12 04:47:53;;;;;;;0.00;0.00;;;;;;;;;;5020048;28;20293;-77
2023/01/12 04:50:23;;;;;;;0.00;0.00;;;;;;;;;;5015531;28;20275;-77
2023/01/12 04:52:51;;;;;;;0.00;0.00;;;;;;;;;;5015596;28;20209;-77
2023/01/12 04:55:20;;;;;;;0.00;0.00;;;;;;;;;;5015638;28;20235;-77
2023/01/12 04:57:48;;;;;;;0.00;0.00;;;;;;;;;;5019145;28;20258;-77
2023/01/12 05:00:17;;;;;;;0.00;0.00;;;;;;;;;;5035199;28;20251;-78
2023/01/12 05:02:45;;;;;;;0.00;0.00;;;;;;;;;;5034886;28;20220;-78
2023/01/12 05:05:14;;;;;;;0.00;0.00;;;;;;;;;;5035695;28;20633;-77
2023/01/12 05:10:26;;;;;;;0.00;0.00;;;;;;;;;;5034729;28;20199;-78
2023/01/12 05:12:54;;;;;;;0.00;0.00;;;;;;;;;;5035082;28;20196;-78
2023/01/12 05:15:23;;;;;;;0.00;0.00;;;;;;;;;;5024827;28;20203;-77
2023/01/12 05:17:53;;;;;;;0.00;0.00;;;;;;;;;;5034403;28;20260;-77
2023/01/12 05:20:21;;;;;;;0.00;0.00;;;;;;;;;;5035078;28;20586;-78
2023/01/12 05:22:51;;;;;;;0.00;0.00;;;;;;;;;;5032710;28;20231;-77
2023/01/12 05:25:20;;;;;;;0.00;0.00;;;;;;;;;;5017913;28;20262;-77
2023/01/12 05:27:48;;;;;;;0.00;0.00;;;;;;;;;;5014840;28;20300;-77
2023/01/12 05:30:17;;;;;;;0.00;0.00;;;;;;;;;;5014783;28;20212;-77
2023/01/12 05:32:45;;;;;;;0.00;0.00;;;;;;;;;;5024350;28;20620;-77
2023/01/12 05:35:13;;;;;;;0.00;0.00;;;;;;;;;;5034374;28;20196;-77
2023/01/12 05:37:42;;;;;;;0.00;0.00;;;;;;;;;;5032323;28;20266;-76
2023/01/12 05:40:12;;;;;;;0.00;0.00;;;;;;;;;;5027297;28;20207;-77
2023/01/12 05:45:26;;;;;;;0.00;0.00;;;;;;;;;;5054195;28;20183;-77
2023/01/12 05:47:59;;;;;;;0.00;0.00;;;;;;;;;;5051380;28;20212;-77
2023/01/12 05:50:27;;;;;;;0.00;0.00;;;;;;;;;;5034551;28;20215;-77
2023/01/12 05:52:56;;;;;;;0.00;0.00;;;;;;;;;;5032690;28;20731;-78
2023/01/12 05:55:25;;;;;;;0.00;0.00;;;;;;;;;;5026259;28;20244;-77
2023/01/12 05:57:54;;;;;;;0.00;0.00;;;;;;;;;;5041749;28;20332;-77
2023/01/12 06:00:22;;;;;;;0.00;0.00;;;;;;;;;;5027805;28;20630;-77
2023/01/12 06:02:51;;;;;;;0.00;0.00;;;;;;;;;;5033189;28;20207;-76
2023/01/12 06:05:19;;;;;;;0.00;0.00;;;;;;;;;;5030345;28;20227;-77
2023/01/12 06:07:48;;;;;;;0.00;0.00;;;;;;;;;;5032917;28;20238;-77
2023/01/12 06:10:16;;;;;;;0.00;0.00;;;;;;;;;;5033546;28;20208;-77
2023/01/12 06:15:32;;;;;;;0.00;0.00;;;;;;;;;;5020909;28;20212;-76
2023/01/12 06:18:01;;;;;;;0.00;0.00;;;;;;;;;;5030250;28;20227;-76
2023/01/12 06:20:29;;;;;;;0.00;0.00;;;;;;;;;;5033452;28;20232;-77
2023/01/12 06:23:00;;;;;;;0.00;0.00;;;;;;;;;;5043610;28;20203;-76
2023/01/12 06:25:29;;;;;;;0.00;0.00;;;;;;;;;;5049271;28;20204;-77
2023/01/12 06:27:59;;;;;;;0.00;0.00;;;;;;;;;;5013783;28;20216;-77
2023/01/12 06:30:27;;;;;;;0.00;0.00;;;;;;;;;;5014011;28;20325;-77
2023/01/12 06:32:57;;;;;;;0.00;0.00;;;;;;;;;;5014397;28;20673;-77
2023/01/12 06:35:25;;;;;;;0.00;0.00;;;;;;;;;;5013286;28;20251;-76
2023/01/12 06:37:56;;;;;;;0.00;0.00;;;;;;;;;;5030023;28;20270;-77
2023/01/12 06:40:24;;;;;;;0.00;0.00;;;;;;;;;;5033548;28;20227;-77
2023/01/12 06:42:52;;;;;;;0.00;0.00;;;;;;;;;;5033753;28;20212;-77
2023/01/12 06:45:21;;;;;;;0.00;0.00;;;;;;;;;;5033313;28;20239;-77
2023/01/12 06:47:50;;;;;;;0.00;0.00;;;;;;;;;;5032951;28;20219;-77
2023/01/12 06:50:19;;;;;;;0.00;0.00;;;;;;;;;;5033521;28;20235;-77
2023/01/12 06:52:48;;;;;;;0.00;0.00;;;;;;;;;;5033717;28;20591;-76
2023/01/12 06:55:16;;;;;;;0.00;0.00;;;;;;;;;;5032326;28;20196;-76
2023/01/12 06:57:45;;;;;;;0.00;0.00;;;;;;;;;;5033297;28;20227;-77
2023/01/12 07:00:14;;;;;;;0.00;0.00;;;;;;;;;;5033386;28;20631;-77
2023/01/12 07:02:44;;;;;;;0.00;0.00;;;;;;;;;;5033420;28;20273;-77
2023/01/12 07:05:12;;;;;;;0.00;0.00;;;;;;;;;;5031664;28;20562;-77
2023/01/12 07:07:40;;;;;;;0.00;0.00;;;;;;;;;;5033159;28;20223;-76
2023/01/12 07:10:10;;;;;;;0.00;0.00;;;;;;;;;;5033492;28;20620;-76
2023/01/12 07:12:38;;;;;;;0.00;0.00;;;;;;;;;;5037471;28;20262;-77
2023/01/12 07:15:07;;;;;;;0.00;0.00;;;;;;;;;;5027413;28;20310;-76
2023/01/12 07:17:36;;;;;;;0.00;0.00;;;;;;;;;;5017609;28;20696;-76
2023/01/12 07:20:06;;;;;;;0.00;0.00;;;;;;;;;;5021372;28;20253;-76
2023/01/12 07:22:35;;;;;;;0.00;0.00;;;;;;;;;;5037474;28;20633;-76
2023/01/12 07:25:03;;;;;;;0.00;0.00;;;;;;;;;;5036706;28;20204;-77
2023/01/12 07:27:32;;;;;;;0.00;0.00;;;;;;;;;;5037079;28;20228;-76
2023/01/12 07:30:00;;;;;;;0.00;0.00;;;;;;;;;;5036861;28;20203;-76
2023/01/12 07:32:28;;;;;;;0.00;0.00;;;;;;;;;;5039820;28;20615;-76
2023/01/12 07:34:57;;;;;;;0.00;0.00;;;;;;;;;;5034782;28;20236;-76
2023/01/12 07:37:27;;;;;;;0.00;0.00;;;;;;;;;;5036401;28;20350;-76
2023/01/12 07:39:55;;;;;;;0.00;0.00;;;;;;;;;;5036887;28;20567;-77
2023/01/12 07:42:26;;;;;;;0.00;0.00;;;;;;;;;;5036284;28;20206;-77
2023/01/12 07:44:54;;;;;;;0.00;0.00;;;;;;;;;;5024027;28;20262;-77
2023/01/12 07:47:23;;;;;;;0.00;0.00;;;;;;;;;;5021290;28;20232;-77
2023/01/12 07:49:52;;;;;;;0.00;0.00;;;;;;;;;;5017140;28;20200;-76
2023/01/12 07:52:20;;;;;;;0.00;0.00;;;;;;;;;;5019688;28;20244;-76
2023/01/12 07:54:50;;;;;;;0.00;0.00;;;;;;;;;;5018646;28;20208;-76
2023/01/12 07:57:19;;;;;;;0.00;0.00;;;;;;;;;;5016843;28;20266;-76
2023/01/12 07:59:47;;;;;;;0.00;0.00;;;;;;;;;;5034110;28;20235;-77
2023/01/12 08:02:16;;;;;;;0.00;0.00;;;;;;;;;;5036528;28;20203;-76
2023/01/12 08:04:44;;;;;;;0.00;0.00;;;;;;;;;;5035150;28;20229;-76
2023/01/12 08:07:13;;;;;;;0.00;0.00;;;;;;;;;;5035087;28;20258;-76
2023/01/12 08:09:42;;;;;;;0.00;0.00;;;;;;;;;;5035061;28;20200;-76
2023/01/12 08:12:12;;;;;;;0.00;0.00;;;;;;;;;;5034759;28;20250;-76
2023/01/12 08:14:41;;;;;;;0.00;0.00;;;;;;;;;;5015238;28;20208;-76
2023/01/12 08:17:12;;;;;;;0.00;0.00;;;;;;;;;;5015418;28;20229;-76
2023/01/12 08:19:43;;;;;;;0.00;0.00;;;;;;;;;;5015289;28;20550;-77
2023/01/12 08:22:15;;;;;;;0.00;0.00;;;;;;;;;;5014924;28;20579;-76
2023/01/12 08:24:45;;;;;;;0.00;0.00;;;;;;;;;;5018437;28;20250;-76
2023/01/12 08:27:16;;;;;;;0.00;0.00;;;;;;;;;;5050184;28;20304;-76
2023/01/12 08:29:46;;;;;;;0.00;0.00;;;;;;;;;;5028532;28;20243;-76
2023/01/12 08:32:16;;;;;;;0.00;0.00;;;;;;;;;;5034490;28;20215;-76
2023/01/12 08:34:47;;;;;;;0.00;0.00;;;;;;;;;;5034675;28;20576;-76
2023/01/12 08:37:17;;;;;;;0.00;0.00;;;;;;;;;;5034539;28;20223;-76
2023/01/12 08:39:46;;;;;;;0.00;0.00;;;;;;;;;;5034739;28;20650;-76
2023/01/12 08:42:16;;;;;;;0.00;0.00;;;;;;;;;;5031638;28;20651;-76
2023/01/12 08:44:45;;;;;;;0.00;0.00;;;;;;;;;;5032468;28;20207;-76
2023/01/12 08:47:17;;;;;;;0.00;0.00;;;;;;;;;;5033847;28;20262;-76
2023/01/12 08:49:46;;;;;;;0.00;0.00;;;;;;;;;;5034484;28;20723;-76
2023/01/12 08:52:14;;;;;;;0.00;0.00;;;;;;;;;;5025095;28;20240;-76
2023/01/12 08:54:43;;;;;;;0.00;0.00;;;;;;;;;;5014318;28;20205;-76
2023/01/12 08:57:12;;;;;;;0.00;0.00;;;;;;;;;;5014428;28;20263;-76
2023/01/12 08:59:42;;;;;;;0.00;0.00;;;;;;;;;;5014974;28;20228;-77
2023/01/12 09:04:51;;;;;;;0.00;0.00;;;;;;;;;;5090671;28;20555;-76
2023/01/12 09:07:19;;;;;;;0.00;0.00;;;;;;;;;;5102093;28;20226;-76
2023/01/12 09:09:48;;;;;;;0.00;0.00;;;;;;;;;;5091391;28;20205;-76
2023/01/12 09:12:16;;;;;;;0.00;0.00;;;;;;;;;;5090672;28;20237;-76
2023/01/12 09:14:45;;;;;;;0.00;0.00;;;;;;;;;;5079450;28;20686;-76
2023/01/12 09:17:13;;;;;;;0.00;0.00;;;;;;;;;;5070508;28;20245;-77
2023/01/12 09:19:46;;;;;;;0.00;0.00;;;;;;;;;;5070894;28;20202;-76
2023/01/12 09:22:16;;;;;;;0.00;0.00;;;;;;;;;;5070163;28;20194;-76
2023/01/12 09:24:45;;;;;;;0.00;0.00;;;;;;;;;;5070094;28;20257;-76
2023/01/12 09:27:13;;;;;;;0.00;0.00;;;;;;;;;;5070189;28;20690;-76
2023/01/12 09:29:42;;;;;;;0.00;0.00;;;;;;;;;;5065347;28;20207;-77
2023/01/12 09:32:10;;;;;;;0.00;0.00;;;;;;;;;;5061382;28;20234;-76
2023/01/12 09:34:39;;;;;;;0.00;0.00;;;;;;;;;;5070123;28;20202;-77
2023/01/12 09:37:07;;;;;;;0.00;0.00;;;;;;;;;;5050547;28;20317;-76
2023/01/12 09:39:37;;;;;;;0.00;0.00;;;;;;;;;;5049978;28;20242;-76
2023/01/12 09:47:39;;;;;;;0.00;0.00;;;;;;;;;;5049758;28;20281;-76
2023/01/12 09:50:09;;;;;;;0.00;0.00;;;;;;;;;;5056735;28;20238;-76
2023/01/12 09:52:40;;;;;;;0.00;0.00;;;;;;;;;;5069722;28;20191;-77
2023/01/12 09:55:13;;;;;;;0.00;0.00;;;;;;;;;;5069838;28;20241;-76
2023/01/12 09:58:00;;;;;;;0.00;0.00;;;;;;;;;;5067596;28;20263;-77
2023/01/12 10:00:29;;;;;;;0.00;0.00;;;;;;;;;;5055606;28;20237;-76
2023/01/12 10:03:06;;;;;;;0.00;0.00;;;;;;;;;;5069517;28;20268;-77
2023/01/12 10:05:38;;;;;;;0.00;0.00;;;;;;;;;;5069513;28;20207;-76
2023/01/12 10:08:10;;;;;;;0.00;0.00;;;;;;;;;;5069670;28;20594;-76
2023/01/12 10:10:41;;;;;;;0.00;0.00;;;;;;;;;;5069188;28;20187;-77
2023/01/12 10:13:13;;;;;;;0.00;0.00;;;;;;;;;;5069371;28;20187;-78
2023/01/12 10:15:43;;;;;;;0.00;0.00;;;;;;;;;;5059338;28;20207;-77
2023/01/12 10:18:14;;;;;;;0.00;0.00;;;;;;;;;;5055953;28;20227;-77
2023/01/12 10:20:43;;;;;;;0.00;0.00;;;;;;;;;;5055451;28;20233;-77
2023/01/12 10:23:15;;;;;;;0.00;0.00;;;;;;;;;;5055769;28;20645;-76
2023/01/12 10:25:47;;;;;;;0.00;0.00;;;;;;;;;;5055951;28;20187;-77
2023/01/12 10:28:17;;;;;;;0.00;0.00;;;;;;;;;;5056315;28;20223;-76
2023/01/12 10:30:46;;;;;;;0.00;0.00;;;;;;;;;;5056082;28;20203;-77
2023/01/12 10:33:16;;;;;;;0.00;0.00;;;;;;;;;;5063572;28;20213;-77
2023/01/12 10:35:49;;;;;;;0.00;0.00;;;;;;;;;;5036375;28;20242;-76
2023/01/12 10:38:22;;;;;;;0.00;0.00;;;;;;;;;;5051539;28;20272;-77
2023/01/12 10:41:04;;;;;;;0.00;0.00;;;;;;;;;;5055833;28;20559;-76
2023/01/12 10:43:32;;;;;;;0.00;0.00;;;;;;;;;;5046454;28;20541;-77
2023/01/12 10:46:05;;;;;;;0.00;0.00;;;;;;;;;;5035482;28;20204;-76
2023/01/12 10:48:34;;;;;;;0.00;0.00;;;;;;;;;;5035283;28;20219;-76
2023/01/12 10:51:04;;;;;;;0.00;0.00;;;;;;;;;;5037914;28;20203;-76
2023/01/12 10:53:36;;;;;;;0.00;0.00;;;;;;;;;;5054022;28;20612;-76
2023/01/12 10:56:22;;;;;;;0.00;0.00;;;;;;;;;;5064033;28;20272;-77
2023/01/12 10:58:52;;;;;;;0.00;0.00;;;;;;;;;;5054048;28;20269;-76
2023/01/12 11:01:21;;;;;;;0.00;0.00;;;;;;;;;;5053633;28;20203;-76
2023/01/12 11:03:50;;;;;;;0.00;0.00;;;;;;;;;;5054203;28;20227;-77
2023/01/12 11:06:29;;;;;;;0.00;0.00;;;;;;;;;;5073610;28;20202;-76
2023/01/12 11:08:58;;;;;;;0.00;0.00;;;;;;;;;;5066114;28;20210;-76
2023/01/12 11:11:31;;;;;;;0.00;0.00;;;;;;;;;;5053663;28;20203;-78
2023/01/12 11:14:01;;;;;;;0.00;0.00;;;;;;;;;;5054319;28;20187;-77
2023/01/12 11:16:32;;;;;;;0.00;0.00;;;;;;;;;;5054652;28;20207;-76
2023/01/12 11:19:11;;;;;;;0.00;0.00;;;;;;;;;;5056377;28;20199;-76
2023/01/12 11:21:42;;;;;;;0.00;0.00;;;;;;;;;;5055345;28;20253;-77
2023/01/12 11:24:13;;;;;;;0.00;0.00;;;;;;;;;;5054999;28;20207;-77
2023/01/12 11:26:46;;;;;;;0.00;0.00;;;;;;;;;;5053929;28;20234;-77
2023/01/12 11:29:28;;;;;;;0.00;0.00;;;;;;;;;;5054380;28;20223;-77
2023/01/12 11:31:59;;;;;;;0.00;0.00;;;;;;;;;;5054681;28;20241;-77
2023/01/12 11:34:30;;;;;;;0.00;0.00;;;;;;;;;;5054799;28;20214;-77
2023/01/12 11:37:03;;;;;;;0.00;0.00;;;;;;;;;;5054779;28;20249;-77
2023/01/12 11:39:32;;;;;;;0.00;0.00;;;;;;;;;;5055011;28;20192;-77
2023/01/12 11:44:54;;;;;;;0.00;0.00;;;;;;;;;;5036890;28;20259;-77
2023/01/12 11:47:24;;;;;;;0.00;0.00;;;;;;;;;;5053638;28;20222;-77
2023/01/12 11:49:56;;;;;;;0.00;0.00;;;;;;;;;;5055060;28;20668;-76
2023/01/12 11:52:26;;;;;;;0.00;0.00;;;;;;;;;;5054878;28;20226;-76
2023/01/12 11:54:54;;;;;;;0.00;0.00;;;;;;;;;;5054631;28;20268;-77
2023/01/12 11:57:33;;;;;;;0.00;0.00;;;;;;;;;;5054259;28;20220;-76
2023/01/12 12:00:05;;;;;;;0.00;0.00;;;;;;;;;;5054391;28;20190;-76
2023/01/12 12:02:36;;;;;;;0.00;0.00;;;;;;;;;;5054268;28;20191;-77
2023/01/12 12:05:10;;;;;;;0.00;0.00;;;;;;;;;;5041704;28;20219;-76
2023/01/12 12:07:48;;;;;;;0.00;0.00;;;;;;;;;;5034314;28;20271;-77
2023/01/12 12:10:21;;;;;;;0.00;0.00;;;;;;;;;;5052898;28;20202;-77
2023/01/12 12:13:06;;;;;;;0.00;0.00;;;;;;;;;;5054074;28;20203;-77
2023/01/12 12:15:39;;;;;;;0.00;0.00;;;;;;;;;;5051840;28;20229;-77
2023/01/12 12:18:14;;;;;;;0.00;0.00;;;;;;;;;;5053925;28;20231;-77
2023/01/12 12:20:46;;;;;;;0.00;0.00;;;;;;;;;;5054025;28;20190;-76
2023/01/12 12:23:20;;;;;;;0.00;0.00;;;;;;;;;;5053575;28;20273;-77
2023/01/12 12:25:53;;;;;;;0.00;0.00;;;;;;;;;;5053570;28;20223;-77
2023/01/12 12:28:34;;;;;;;0.00;0.00;;;;;;;;;;5054485;28;20729;-77
2023/01/12 12:31:15;;;;;;;0.00;0.00;;;;;;;;;;5054309;28;20238;-76
2023/01/12 12:33:50;;;;;;;0.00;0.00;;;;;;;;;;5053729;28;20191;-76
2023/01/12 12:36:21;;;;;;;0.00;0.00;;;;;;;;;;5054075;28;20187;-76
2023/01/12 12:39:06;;;;;;;0.00;0.00;;;;;;;;;;5052859;28;20219;-77
2023/01/12 12:47:38;;;;;;;0.00;0.00;;;;;;;;;;5053966;28;20589;-77
2023/01/12 12:50:17;;;;;;;0.00;0.00;;;;;;;;;;5050615;28;20664;-76
2023/01/12 12:52:47;;;;;;;0.00;0.00;;;;;;;;;;5053018;28;20248;-76
2023/01/12 12:55:15;;;;;;;0.00;0.00;;;;;;;;;;5052775;28;20222;-77
2023/01/12 12:58:00;;;;;;;0.00;0.00;;;;;;;;;;5053064;28;20229;-76
2023/01/12 13:00:30;;;;;;;0.00;0.00;;;;;;;;;;5052945;28;20199;-76
2023/01/12 13:02:59;;;;;;;0.00;0.00;;;;;;;;;;5052321;28;20211;-76
2023/01/12 13:05:41;;;;;;;0.00;0.00;;;;;;;;;;5053728;28;20203;-76
2023/01/12 13:08:18;;;;;;;0.00;0.00;;;;;;;;;;5053908;28;20231;-77
2023/01/12 13:10:51;;;;;;;0.00;0.00;;;;;;;;;;5052595;28;20206;-77
2023/01/12 13:13:27;;;;;;;0.00;0.00;;;;;;;;;;5054064;28;20560;-76
2023/01/12 13:16:14;;;;;;;0.00;0.00;;;;;;;;;;5063251;28;20201;-76
2023/01/12 13:19:03;;;;;;;0.00;0.00;;;;;;;;;;5072613;28;20222;-76
2023/01/12 13:21:32;;;;;;;0.00;0.00;;;;;;;;;;5052739;28;20195;-77
2023/01/12 13:24:26;;;;;;;0.00;0.00;;;;;;;;;;5053727;28;20600;-77
2023/01/12 13:26:56;;;;;;;0.00;0.00;;;;;;;;;;5053172;28;20313;-77
2023/01/12 13:29:38;;;;;;;0.00;0.00;;;;;;;;;;5052755;28;20203;-77
2023/01/12 13:32:25;;;;;;;0.00;0.00;;;;;;;;;;5048132;28;20214;-77
2023/01/12 13:34:55;;;;;;;0.00;0.00;;;;;;;;;;5052830;28;20207;-78
2023/01/12 13:37:27;;;;;;;0.00;0.00;;;;;;;;;;5052460;28;20222;-77
2023/01/12 13:39:58;;;;;;;0.00;0.00;;;;;;;;;;5053246;28;20234;-77
2023/01/12 13:45:28;;;;;;;0.00;0.00;;;;;;;;;;4989782;28;21014;-78
2023/01/12 13:47:57;;;;;;;0.00;0.00;;;;;;;;;;4991489;28;20233;-76
2023/01/12 13:50:28;;;;;;;0.00;0.00;;;;;;;;;;5017960;28;20247;-76
2023/01/12 13:52:57;;;;;;;0.00;0.00;;;;;;;;;;5036913;28;20645;-77
2023/01/12 13:55:27;;;;;;;0.00;0.00;;;;;;;;;;5036585;28;20250;-77
2023/01/12 13:57:56;;;;;;;0.00;0.00;;;;;;;;;;5036547;28;20231;-77
2023/01/12 14:00:25;;;;;;;0.00;0.00;;;;;;;;;;5046023;28;20652;-76
2023/01/12 14:02:54;;;;;;;0.00;0.00;;;;;;;;;;5056274;28;20207;-76
2023/01/12 14:05:29;;;;;;;0.00;0.00;;;;;;;;;;5056482;28;20215;-77
2023/01/12 14:08:02;;;;;;;0.00;0.00;;;;;;;;;;5056527;28;20633;-77
2023/01/12 14:10:38;;;;;;;0.00;0.00;;;;;;;;;;5057356;28;20592;-77
2023/01/12 14:13:13;;;;;;;0.00;0.00;;;;;;;;;;5055841;28;20237;-77
2023/01/12 14:18:43;;;;;;;0.00;0.00;;;;;;;;;;5011970;28;20248;-77
2023/01/12 14:21:22;;;;;;;0.00;0.00;;;;;;;;;;5045317;28;20260;-76
2023/01/12 14:23:50;;;;;;;0.00;0.00;;;;;;;;;;5054080;28;20618;-76
2023/01/12 14:26:22;;;;;;;0.00;0.00;;;;;;;;;;5054050;28;20571;-77
2023/01/12 14:28:51;;;;;;;0.00;0.00;;;;;;;;;;5054384;28;20600;-77
2023/01/12 14:31:23;;;;;;;0.00;0.00;;;;;;;;;;5066241;28;20233;-77
2023/01/12 14:33:52;;;;;;;0.00;0.00;;;;;;;;;;5072058;28;20193;-77
2023/01/12 14:36:24;;;;;;;0.00;0.00;;;;;;;;;;5054318;28;20625;-77
2023/01/12 14:38:53;;;;;;;0.00;0.00;;;;;;;;;;5053484;28;20309;-77
2023/01/12 14:47:01;;;;;;;0.00;0.00;;;;;;;;;;5049764;28;20231;-77
2023/01/12 14:49:30;;;;;;;0.00;0.00;;;;;;;;;;5053575;28;20242;-77
2023/01/12 14:52:01;;;;;;;0.00;0.00;;;;;;;;;;5042545;28;20200;-76
2023/01/12 14:54:31;;;;;;;0.00;0.00;;;;;;;;;;5048323;28;20696;-77
2023/01/12 14:57:01;;;;;;;0.00;0.00;;;;;;;;;;5053365;28;20227;-77
2023/01/12 14:59:31;;;;;;;0.00;0.00;;;;;;;;;;5039899;28;20544;-77
2023/01/12 15:02:18;;;;;;;0.00;0.00;;;;;;;;;;5049191;28;20290;-76
2023/01/12 15:04:50;;;;;;;0.00;0.00;;;;;;;;;;5055410;28;20241;-77
2023/01/12 15:07:21;;;;;;;0.00;0.00;;;;;;;;;;5055168;28;20223;-77
2023/01/12 15:09:54;;;;;;;0.00;0.00;;;;;;;;;;5050499;28;20544;-77
2023/01/12 15:12:26;;;;;;;0.00;0.00;;;;;;;;;;5052200;28;20634;-76
2023/01/12 15:14:54;;;;;;;0.00;0.00;;;;;;;;;;5047843;28;20648;-77
2023/01/12 15:25:59;;;;;;;0.00;0.00;;;;;;;;;;5071959;28;20293;-77
2023/01/12 15:28:29;;;;;;;0.00;0.00;;;;;;;;;;5072964;28;20268;-79
2023/01/12 15:30:57;;;;;;;0.00;0.00;;;;;;;;;;5073425;28;20206;-78
2023/01/12 15:33:26;;;;;;;0.00;0.00;;;;;;;;;;5073805;28;20203;-78
2023/01/12 15:35:54;;;;;;;0.00;0.00;;;;;;;;;;5073923;28;20238;-78
2023/01/12 15:38:27;;;;;;;0.00;0.00;;;;;;;;;;5073674;28;20257;-79
2023/01/12 15:40:56;;;;;;;0.00;0.00;;;;;;;;;;5074587;28;20698;-79
2023/01/12 15:43:24;;;;;;;0.00;0.00;;;;;;;;;;5074900;28;20203;-78
2023/01/12 15:45:53;;;;;;;0.00;0.00;;;;;;;;;;5074085;28;20202;-78
2023/01/12 15:48:22;;;;;;;0.00;0.00;;;;;;;;;;5074340;28;20564;-80
2023/01/12 15:50:50;;;;;;;0.00;0.00;;;;;;;;;;5074520;28;20198;-80
2023/01/12 15:53:30;;;;;;;0.00;0.00;;;;;;;;;;5064687;28;20245;-80
2023/01/12 15:58:48;;;;;;;0.00;0.00;;;;;;;;;;5050044;28;20310;-79
2023/01/12 16:01:17;;;;;;;0.00;0.00;;;;;;;;;;5051168;28;20238;-80
2023/01/12 16:03:45;;;;;;;0.00;0.00;;;;;;;;;;5051567;28;20213;-80
2023/01/12 16:06:36;;;;;;;0.00;0.00;;;;;;;;;;5051278;28;20608;-79
2023/01/12 16:09:04;;;;;;;0.00;0.00;;;;;;;;;;5051781;28;20555;-79
2023/01/12 16:11:34;;;;;;;0.00;0.00;;;;;;;;;;5051656;28;20195;-79